Time;durP1;ratioP1;P1;durP2;ratioP2;P2;SDS_P1;SDS_P2;PMS_P1;PMS_P2;Temp;Humidity;BMP_temperature;BMP_pressure;BME280_temperature;BME280_humidity;BME280_pressure;Samples;Min_cycle;Max_cycle;Signal;HPM_P1;HPM_P2
2023/06/26 02:52:33;;;;;;;9.40;7.00;;;;;;;15.79;75.69;96709.52;111093;1248;22842;-87
2023/06/26 02:56:09;;;;;;;9.40;6.90;;;;;;;15.77;75.90;96705.28;106538;1257;5324948;-87
2023/06/26 03:03:02;;;;;;;;;;;;;;;;;;;;;
2023/06/26 03:05:51;;;;;;;10.00;6.80;;;;;;;15.73;76.44;96711.14;106595;1259;5170376;-87
2023/06/26 03:08:58;;;;;;;8.40;6.70;;;;;;;15.73;76.50;96713.78;110653;1256;24390;-87
2023/06/26 03:14:59;;;;;;;10.70;6.70;;;;;;;15.71;76.61;96705.32;111384;1248;22502;-87
2023/06/26 03:17:44;;;;;;;9.30;7.00;;;;;;;15.72;76.63;96706.52;110504;1243;1731519;-87
2023/06/26 03:20:36;;;;;;;7.50;6.40;;;;;;;15.75;76.68;96710.23;112114;1237;24200;-88
2023/06/26 03:23:07;;;;;;;8.90;6.60;;;;;;;15.80;76.73;96707.79;112120;1243;22545;-87
2023/06/26 03:26:15;;;;;;;;;;;;;;;;;;;;;
2023/06/26 03:29:13;;;;;;;;;;;;;;;;;;;;;
2023/06/26 03:31:56;;;;;;;8.40;7.10;;;;;;;15.82;76.79;96709.52;111675;1238;22671;-87
2023/06/26 03:34:59;;;;;;;8.20;6.50;;;;;;;15.84;76.85;96706.97;112024;1243;22502;-87
2023/06/26 03:38:25;;;;;;;8.60;6.70;;;;;;;15.86;76.98;96706.95;112071;1243;22479;-88
2023/06/26 03:41:20;;;;;;;;;;;;;;;;;;;;;
2023/06/26 03:44:20;;;;;;;;;;;;;;;;;;;;;
2023/06/26 03:47:34;;;;;;;9.60;7.10;;;;;;;15.94;77.24;96704.41;110513;1240;2117555;-88
2023/06/26 03:50:10;;;;;;;9.30;7.60;;;;;;;15.96;77.34;96708.25;112210;1239;22482;-87
2023/06/26 03:52:51;;;;;;;10.00;7.30;;;;;;;15.95;77.37;96713.49;112226;1243;22527;-87
2023/06/26 03:55:27;;;;;;;8.50;7.50;;;;;;;15.96;77.53;96714.16;112089;1236;22513;-88
2023/06/26 03:57:57;;;;;;;7.80;6.70;;;;;;;15.98;77.59;96712.94;112092;1236;23907;-86
2023/06/26 04:00:56;;;;;;;9.90;7.10;;;;;;;15.98;77.57;96715.92;112238;1243;23814;-87
2023/06/26 04:03:27;;;;;;;9.30;6.90;;;;;;;15.98;77.70;96715.07;112217;1240;25263;-87
2023/06/26 04:06:01;;;;;;;9.40;7.10;;;;;;;16.00;77.85;96717.40;110725;1243;1835953;-87
2023/06/26 04:08:40;;;;;;;9.90;7.90;;;;;;;16.04;77.99;96710.74;112169;1243;24489;-87
2023/06/26 04:11:12;;;;;;;14.80;7.40;;;;;;;16.08;78.02;96712.00;112233;1239;23077;-88
2023/06/26 04:13:45;;;;;;;9.70;7.20;;;;;;;16.11;78.03;96712.75;112142;1243;24456;-87
2023/06/26 04:16:25;;;;;;;10.90;7.10;;;;;;;16.13;78.05;96712.73;112186;1243;46217;-87
2023/06/26 04:19:04;;;;;;;9.30;7.10;;;;;;;16.17;78.06;96715.40;112244;1242;22521;-87
2023/06/26 04:21:42;;;;;;;7.50;6.70;;;;;;;16.21;78.13;96716.25;112213;1243;22529;-86
2023/06/26 04:24:30;;;;;;;9.50;6.70;;;;;;;16.24;78.05;96711.88;112220;1243;25526;-87
2023/06/26 04:27:03;;;;;;;9.50;7.10;;;;;;;16.27;78.02;96710.23;110587;1243;2079222;-87
2023/06/26 04:29:34;;;;;;;8.70;7.00;;;;;;;16.29;78.10;96712.63;112229;1243;24245;-87
2023/06/26 04:32:07;;;;;;;10.00;7.30;;;;;;;16.34;78.14;96710.70;112220;1243;22561;-87
2023/06/26 04:34:51;;;;;;;8.50;6.50;;;;;;;16.40;78.20;96711.67;112155;1243;25339;-87
2023/06/26 04:37:24;;;;;;;10.70;7.80;;;;;;;16.46;78.20;96712.74;112179;1243;87661;-86
2023/06/26 04:40:10;;;;;;;8.30;6.70;;;;;;;16.51;78.15;96715.48;112213;1240;23258;-87
2023/06/26 04:42:41;;;;;;;8.30;6.80;;;;;;;16.57;78.03;96714.55;112203;1243;22502;-87
2023/06/26 04:45:10;;;;;;;11.50;7.00;;;;;;;16.62;77.97;96710.23;112199;1243;22495;-87
2023/06/26 04:47:43;;;;;;;9.10;7.00;;;;;;;16.67;77.83;96710.25;112154;1243;53191;-87
2023/06/26 04:50:19;;;;;;;9.00;7.20;;;;;;;16.70;77.83;96709.98;112181;1243;22495;-87
2023/06/26 04:53:04;;;;;;;7.90;6.70;;;;;;;16.75;77.82;96710.45;112197;1243;25260;-87
2023/06/26 04:55:39;;;;;;;10.30;7.10;;;;;;;16.81;77.68;96710.01;112218;1243;22517;-86
2023/06/26 04:58:08;;;;;;;10.00;7.60;;;;;;;16.87;77.61;96710.91;112171;1243;23774;-87
2023/06/26 05:00:43;;;;;;;8.50;6.20;;;;;;;16.93;77.52;96713.69;112196;1240;26486;-87
2023/06/26 05:03:17;;;;;;;8.60;7.10;;;;;;;16.99;77.46;96711.30;112177;1243;22723;-87
2023/06/26 05:05:50;;;;;;;8.90;6.50;;;;;;;17.09;77.39;96713.98;112110;1243;77626;-87
2023/06/26 05:08:29;;;;;;;7.80;6.80;;;;;;;17.17;77.28;96717.35;112132;1240;25219;-87
2023/06/26 05:11:03;;;;;;;8.80;6.60;;;;;;;17.28;77.34;96714.17;112226;1243;22496;-86
2023/06/26 05:13:36;;;;;;;9.00;6.50;;;;;;;17.39;77.23;96717.89;112198;1243;22519;-87
2023/06/26 05:16:09;;;;;;;9.00;6.80;;;;;;;17.52;77.15;96714.13;112174;1243;50363;-86
2023/06/26 05:18:40;;;;;;;8.60;6.80;;;;;;;17.66;77.04;96714.98;112231;1243;25257;-87
2023/06/26 05:21:16;;;;;;;8.80;6.50;;;;;;;17.84;76.94;96709.65;112206;1243;25387;-86
2023/06/26 05:23:49;;;;;;;9.60;6.50;;;;;;;18.09;76.86;96709.86;112211;1243;22505;-86
2023/06/26 05:26:19;;;;;;;9.10;6.50;;;;;;;18.64;77.37;96709.61;112146;1243;54698;-86
2023/06/26 05:29:02;;;;;;;7.70;6.40;;;;;;;19.80;78.02;96707.05;112105;1243;22535;-87
2023/06/26 05:31:43;;;;;;;9.70;6.50;;;;;;;21.33;76.30;96709.84;112180;1243;22538;-86
2023/06/26 05:34:15;;;;;;;7.70;5.90;;;;;;;22.68;74.37;96705.08;112183;1243;22516;-87
2023/06/26 05:36:53;;;;;;;6.50;5.30;;;;;;;23.77;72.00;96705.65;112104;1241;90699;-87
2023/06/26 05:39:31;;;;;;;6.60;5.50;;;;;;;24.65;69.80;96707.40;112212;1243;22539;-86
2023/06/26 05:42:08;;;;;;;7.00;6.30;;;;;;;25.44;67.81;96704.88;112175;1243;24034;-87
2023/06/26 05:44:40;;;;;;;7.20;5.70;;;;;;;26.10;65.74;96704.48;112200;1243;22822;-87
2023/06/26 05:47:42;;;;;;;;;;;;;;;;;;;;;
2023/06/26 05:50:47;;;;;;;;;;;;;;;;;;;;;
2023/06/26 05:53:35;;;;;;;7.10;5.10;;;;;;;28.05;60.08;96696.19;108070;1244;5014267;-88
2023/06/26 05:56:33;;;;;;;;;;;;;;;;;;;;;
2023/06/26 05:59:26;;;;;;;7.20;6.00;;;;;;;29.07;56.97;96695.05;111447;1243;22515;-87
2023/06/26 06:02:41;;;;;;;;;;;;;;;;;;;;;
2023/06/26 06:06:00;;;;;;;;;;;;;;;;;;;;;
2023/06/26 08:23:07;;;;;;;;;;;;;;;;;;;;;
2023/06/26 08:33:28;;;;;;;4.80;3.80;;;;;;;27.33;41.04;96712.02;109590;1261;22527;-89
2023/06/26 09:03:27;;;;;;;;;;;;;;;;;;;;;
2023/06/26 09:06:22;;;;;;;4.20;3.80;;;;;;;25.87;41.75;96703.14;108723;1276;22889;-89
2023/06/26 09:09:03;;;;;;;5.00;3.90;;;;;;;25.42;41.73;96703.85;103681;1268;7358000;-89
2023/06/26 09:11:43;;;;;;;6.40;4.20;;;;;;;25.06;42.10;96700.05;110191;1259;25263;-89
2023/06/26 09:14:19;;;;;;;6.10;3.80;;;;;;;24.84;42.36;96696.20;110576;1259;22518;-89
2023/06/26 09:16:58;;;;;;;5.90;4.00;;;;;;;24.74;42.76;96693.80;110577;1259;22919;-89
2023/06/26 09:19:32;;;;;;;8.20;4.60;;;;;;;24.68;43.01;96696.39;106569;1259;5232197;-88
2023/06/26 09:22:47;;;;;;;5.50;3.70;;;;;;;24.62;43.65;96695.84;110527;1253;22619;-88
2023/06/26 09:25:28;;;;;;;5.50;3.70;;;;;;;24.54;43.79;96693.73;111336;1247;24461;-89
2023/06/26 09:28:19;;;;;;;5.00;3.60;;;;;;;24.63;44.84;96694.92;110117;1247;2092415;-89
2023/06/26 09:31:42;;;;;;;;;;;;;;;;;;;;;
2023/06/26 09:37:40;;;;;;;5.30;3.80;;;;;;;24.90;44.02;96689.13;106418;1252;5530651;-88
2023/06/26 09:40:27;;;;;;;6.00;3.90;;;;;;;24.82;43.64;96684.63;111034;1252;22540;-89
2023/06/26 09:43:26;;;;;;;;;;;;;;;;;;;;;
2023/06/26 09:46:21;;;;;;;5.40;3.70;;;;;;;24.70;42.67;96683.31;111624;1247;22626;-88
2023/06/26 09:49:22;;;;;;;4.80;4.10;;;;;;;24.62;42.88;96685.14;109937;1247;2056578;-88
2023/06/26 09:52:16;;;;;;;5.60;4.20;;;;;;;24.85;43.62;96678.23;111761;1247;25231;-88
2023/06/26 09:55:15;;;;;;;5.30;4.50;;;;;;;25.07;43.76;96683.78;111734;1247;22518;-87
2023/06/26 09:57:49;;;;;;;5.70;3.90;;;;;;;25.15;44.15;96678.67;111653;1247;45898;-88
2023/06/26 10:00:25;;;;;;;5.20;3.70;;;;;;;25.15;43.81;96675.81;111778;1247;22680;-87
2023/06/26 10:03:07;;;;;;;5.10;3.30;;;;;;;25.22;43.97;96675.73;111729;1244;25259;-88
2023/06/26 10:06:06;;;;;;;4.20;3.40;;;;;;;25.22;42.99;96679.77;111740;1247;24355;-87
2023/06/26 10:08:57;;;;;;;5.80;4.50;;;;;;;25.23;43.13;96677.52;111668;1247;75261;-87
2023/06/26 10:15:07;;;;;;;;;;;;;;;;;;;;;
2023/06/26 10:17:51;;;;;;;5.30;3.90;;;;;;;25.05;42.71;96670.82;111270;1247;22572;-88
2023/06/26 10:20:43;;;;;;;6.40;3.90;;;;;;;25.10;43.27;96666.69;111837;1240;22555;-88
2023/06/26 10:23:35;;;;;;;4.60;3.60;;;;;;;25.18;42.72;96665.54;111835;1246;22512;-88
2023/06/26 10:26:10;;;;;;;7.10;4.60;;;;;;;25.29;43.16;96658.66;111796;1246;22625;-87
2023/06/26 10:29:02;;;;;;;;;;;;;;;;;;;;;
2023/06/26 10:31:34;;;;;;;7.80;4.50;;;;;;;25.35;44.36;96657.03;111763;1238;22507;-88
2023/06/26 10:34:08;;;;;;;6.10;4.20;;;;;;;25.32;43.61;96658.07;111748;1247;22531;-87
2023/06/26 10:36:54;;;;;;;;;;;;;;;;;;;;;
2023/06/26 10:39:27;;;;;;;4.80;3.50;;;;;;;25.31;43.54;96649.22;111660;1246;104936;-87
2023/06/26 10:42:32;;;;;;;3.70;3.30;;;;;;;25.11;42.87;96644.84;111814;1246;22511;-87
2023/06/26 10:45:19;;;;;;;5.60;4.00;;;;;;;24.97;44.04;96646.52;111797;1246;22675;-87
2023/06/26 10:47:53;;;;;;;4.80;4.00;;;;;;;25.00;44.56;96645.63;111698;1246;133064;-87
2023/06/26 10:50:35;;;;;;;5.60;4.30;;;;;;;25.06;44.48;96643.64;111811;1246;22503;-87
2023/06/26 10:53:34;;;;;;;6.00;4.10;;;;;;;25.02;43.85;96638.62;111797;1239;25785;-87
2023/06/26 10:56:09;;;;;;;7.30;4.60;;;;;;;24.87;43.53;96636.88;111759;1246;22502;-87
2023/06/26 10:58:48;;;;;;;8.40;4.60;;;;;;;24.59;43.13;96637.77;111739;1246;115971;-87
2023/06/26 11:01:47;;;;;;;6.70;4.90;;;;;;;24.38;43.71;96639.67;111809;1246;23481;-87
2023/06/26 11:04:36;;;;;;;5.60;4.20;;;;;;;24.45;44.70;96634.19;111822;1246;22508;-87
2023/06/26 11:07:29;;;;;;;6.00;4.20;;;;;;;24.60;44.58;96631.05;111865;1246;23007;-87
2023/06/26 11:10:08;;;;;;;6.30;4.60;;;;;;;24.56;44.76;96634.58;111654;1246;50000;-87
2023/06/26 11:12:49;;;;;;;7.50;5.00;;;;;;;24.46;44.64;96636.76;111810;1244;24226;-87
2023/06/26 11:15:23;;;;;;;5.30;4.60;;;;;;;24.39;44.70;96634.36;111799;1246;26655;-88
2023/06/26 11:17:54;;;;;;;7.00;4.40;;;;;;;24.35;44.63;96631.27;111743;1246;80954;-87
2023/06/26 11:20:39;;;;;;;6.60;4.20;;;;;;;24.27;44.90;96631.60;111811;1246;22516;-87
2023/06/26 11:23:23;;;;;;;5.50;4.80;;;;;;;24.20;44.56;96632.82;111797;1246;25228;-88
2023/06/26 11:26:17;;;;;;;8.00;5.50;;;;;;;24.14;44.56;96631.50;111816;1246;22523;-88
2023/06/26 11:28:51;;;;;;;12.00;6.40;;;;;;;24.10;44.80;96630.75;111744;1246;61874;-87
2023/06/26 11:31:31;;;;;;;7.20;5.80;;;;;;;24.08;44.87;96627.17;111819;1242;22565;-88
2023/06/26 11:34:07;;;;;;;7.80;5.20;;;;;;;23.94;44.43;96627.42;111802;1244;22550;-88
2023/06/26 11:36:42;;;;;;;6.50;4.70;;;;;;;23.80;44.31;96627.20;111839;1246;22519;-88
2023/06/26 11:39:14;;;;;;;5.80;4.30;;;;;;;23.73;44.45;96624.70;111774;1246;78366;-88
2023/06/26 11:41:45;;;;;;;7.20;4.80;;;;;;;23.67;44.55;96629.17;111812;1246;22508;-88
2023/06/26 11:44:20;;;;;;;4.90;4.30;;;;;;;23.74;44.81;96628.51;111817;1246;22543;-87
2023/06/26 11:46:51;;;;;;;6.00;4.30;;;;;;;23.89;45.16;96625.17;111810;1246;25567;-87
2023/06/26 11:49:28;;;;;;;5.00;4.00;;;;;;;24.00;45.28;96620.08;111763;1246;64309;-87
2023/06/26 11:52:13;;;;;;;4.60;4.10;;;;;;;24.10;45.04;96616.36;111814;1246;22516;-87
2023/06/26 11:54:49;;;;;;;5.90;4.30;;;;;;;24.23;44.96;96618.08;111809;1239;24253;-87
2023/06/26 11:57:36;;;;;;;5.00;4.40;;;;;;;24.35;44.95;96612.85;111831;1246;22548;-87
2023/06/26 12:00:23;;;;;;;5.50;4.70;;;;;;;24.44;44.99;96613.66;111773;1246;59811;-87
2023/06/26 12:02:58;;;;;;;6.50;4.30;;;;;;;24.56;45.67;96613.58;111826;1246;25273;-87
2023/06/26 12:05:30;;;;;;;7.40;4.40;;;;;;;24.75;46.31;96616.83;111826;1242;22645;-87
2023/06/26 12:08:03;;;;;;;6.80;4.50;;;;;;;24.85;45.42;96616.48;110153;1246;2138664;-87
2023/06/26 12:10:45;;;;;;;4.80;4.20;;;;;;;24.87;44.94;96613.78;111819;1246;22625;-86
2023/06/26 12:13:16;;;;;;;4.50;3.80;;;;;;;24.89;44.74;96608.52;111789;1246;22551;-85
2023/06/26 12:15:45;;;;;;;4.60;3.90;;;;;;;24.86;44.74;96610.52;111811;1246;22530;-86
2023/06/26 12:18:16;;;;;;;7.70;6.00;;;;;;;24.86;44.41;96613.08;111764;1246;53254;-87
2023/06/26 12:20:45;;;;;;;6.00;4.80;;;;;;;24.84;44.56;96611.98;111828;1246;22840;-86
2023/06/26 12:23:17;;;;;;;5.20;4.40;;;;;;;24.82;44.33;96609.94;111659;1246;22515;-85
2023/06/26 12:25:51;;;;;;;5.00;4.20;;;;;;;24.77;44.21;96612.45;111824;1246;22518;-85
2023/06/26 12:28:25;;;;;;;4.10;3.70;;;;;;;24.75;44.31;96613.80;110185;1246;2106670;-86
2023/06/26 12:31:23;;;;;;;4.90;4.30;;;;;;;24.77;44.26;96613.29;111837;1246;23263;-85
2023/06/26 12:33:53;;;;;;;6.30;4.30;;;;;;;24.79;44.40;96608.91;111789;1242;24324;-86
2023/06/26 12:36:25;;;;;;;6.60;4.50;;;;;;;24.84;44.76;96609.80;111820;1246;22498;-86
2023/06/26 12:39:01;;;;;;;4.50;3.90;;;;;;;24.95;44.99;96602.41;110250;1246;2047483;-85
2023/06/26 12:41:35;;;;;;;5.60;4.20;;;;;;;25.05;44.66;96602.31;111658;1246;22505;-86
2023/06/26 12:44:17;;;;;;;6.70;4.50;;;;;;;25.07;44.22;96600.10;111834;1246;22510;-85
2023/06/26 12:46:50;;;;;;;5.70;4.60;;;;;;;25.04;44.40;96597.94;111804;1246;22512;-86
2023/06/26 12:49:23;;;;;;;5.70;4.40;;;;;;;25.08;45.04;96598.16;110432;1246;1798737;-86
2023/06/26 12:52:01;;;;;;;6.10;4.50;;;;;;;25.12;45.04;96598.05;111821;1244;22563;-86
2023/06/26 12:54:37;;;;;;;5.80;3.90;;;;;;;24.98;44.65;96595.94;111839;1246;22492;-86
2023/06/26 12:57:08;;;;;;;6.10;4.20;;;;;;;24.73;44.25;96598.29;111816;1246;22552;-86
2023/06/26 12:59:38;;;;;;;;;;;;;;;24.63;44.76;96594.77;111799;1246;91706;-86
2023/06/26 13:02:11;;;;;;;6.00;4.20;;;;;;;24.72;44.63;96595.80;111844;1246;22614;-86
2023/06/26 13:04:40;;;;;;;6.20;4.20;;;;;;;24.78;44.62;96588.20;111824;1246;22527;-85
2023/06/26 13:07:13;;;;;;;6.90;4.30;;;;;;;24.82;44.47;96588.02;111848;1246;22623;-86
2023/06/26 13:09:42;;;;;;;5.90;4.50;;;;;;;24.77;44.34;96587.10;111784;1246;97517;-86
2023/06/26 13:12:11;;;;;;;5.80;4.30;;;;;;;24.62;44.21;96585.62;111820;1246;24214;-86
2023/06/26 13:14:40;;;;;;;5.00;4.00;;;;;;;24.56;44.28;96583.91;111811;1246;22489;-86
2023/06/26 13:17:13;;;;;;;5.20;4.30;;;;;;;24.58;44.42;96580.38;111824;1246;22486;-86
2023/06/26 13:19:45;;;;;;;5.10;4.10;;;;;;;24.66;44.61;96583.89;111799;1246;40733;-86
2023/06/26 13:22:19;;;;;;;6.90;3.70;;;;;;;24.71;44.55;96577.20;111836;1246;22543;-86
2023/06/26 13:24:51;;;;;;;6.40;3.90;;;;;;;24.77;44.29;96575.40;111798;1246;22620;-86
2023/06/26 13:27:28;;;;;;;5.10;3.90;;;;;;;24.82;44.14;96577.55;111832;1246;22549;-86
2023/06/26 13:30:00;;;;;;;4.90;3.90;;;;;;;24.84;44.44;96570.98;111805;1246;43451;-86
2023/06/26 13:32:28;;;;;;;4.80;4.00;;;;;;;24.87;44.46;96569.84;111871;1244;24125;-86
2023/06/26 13:35:00;;;;;;;5.40;4.10;;;;;;;24.94;44.57;96564.44;111843;1246;22503;-86
2023/06/26 13:37:30;;;;;;;4.90;3.70;;;;;;;25.00;44.65;96563.10;111682;1246;22494;-86
2023/06/26 13:39:59;;;;;;;6.10;4.10;;;;;;;25.06;44.31;96559.77;111777;1246;53503;-86
2023/06/26 13:42:32;;;;;;;5.00;4.20;;;;;;;25.06;43.85;96556.59;111836;1246;23785;-87
2023/06/26 13:45:10;;;;;;;5.50;4.00;;;;;;;25.02;44.07;96551.73;111831;1246;22502;-87
2023/06/26 13:47:43;;;;;;;5.20;4.00;;;;;;;24.92;43.89;96552.08;111823;1241;22626;-86
2023/06/26 13:50:13;;;;;;;4.30;3.80;;;;;;;24.79;43.68;96554.13;111610;1246;61065;-86
2023/06/26 13:52:44;;;;;;;5.60;4.00;;;;;;;24.75;43.87;96548.50;111801;1246;22545;-87
2023/06/26 13:55:15;;;;;;;4.60;3.80;;;;;;;24.78;43.97;96551.42;111868;1246;22563;-87
2023/06/26 13:57:45;;;;;;;4.30;3.40;;;;;;;24.87;44.26;96546.45;111843;1246;22510;-87
2023/06/26 14:00:28;;;;;;;4.90;4.00;;;;;;;24.99;44.40;96541.00;111812;1246;61128;-86
2023/06/26 14:03:02;;;;;;;4.90;4.10;;;;;;;25.06;44.10;96537.84;111836;1246;26546;-86
2023/06/26 14:05:32;;;;;;;5.70;4.50;;;;;;;25.13;44.56;96529.36;111836;1246;22505;-86
2023/06/26 14:08:03;;;;;;;4.50;3.80;;;;;;;25.19;44.27;96531.42;111791;1246;60270;-87
2023/06/26 14:10:32;;;;;;;4.30;3.60;;;;;;;25.16;43.60;96535.66;111820;1246;22513;-86
2023/06/26 14:13:02;;;;;;;4.60;3.80;;;;;;;25.06;43.38;96531.48;111851;1242;22544;-87
2023/06/26 14:15:35;;;;;;;4.20;3.70;;;;;;;24.91;42.97;96533.39;111816;1246;22508;-87
2023/06/26 14:18:05;;;;;;;6.80;3.90;;;;;;;24.79;42.74;96533.83;111806;1246;58493;-87
2023/06/26 14:20:41;;;;;;;4.60;3.30;;;;;;;24.71;43.27;96528.09;111864;1244;22535;-87
2023/06/26 14:23:10;;;;;;;5.50;4.00;;;;;;;24.66;43.37;96526.02;111839;1244;22534;-87
2023/06/26 14:25:42;;;;;;;8.60;3.90;;;;;;;24.63;43.59;96527.30;111820;1246;22558;-87
2023/06/26 14:28:12;;;;;;;6.90;3.90;;;;;;;24.71;43.56;96523.14;111776;1246;76490;-86
2023/06/26 14:30:41;;;;;;;4.90;3.60;;;;;;;24.81;43.44;96522.94;111875;1246;22495;-86
2023/06/26 14:33:19;;;;;;;4.30;3.50;;;;;;;24.93;43.53;96519.78;111845;1246;22492;-87
2023/06/26 14:35:48;;;;;;;5.00;3.80;;;;;;;25.07;43.46;96520.48;111826;1234;26104;-86
2023/06/26 14:38:18;;;;;;;6.80;4.30;;;;;;;25.15;43.13;96512.72;110566;1246;1654294;-87
2023/06/26 14:40:47;;;;;;;6.20;3.70;;;;;;;25.15;43.06;96512.94;111865;1246;25540;-87
2023/06/26 14:43:18;;;;;;;5.80;4.50;;;;;;;25.14;42.89;96506.05;111879;1246;22495;-88
2023/06/26 14:45:48;;;;;;;4.30;3.80;;;;;;;25.06;42.38;96504.66;111860;1246;25225;-88
2023/06/26 14:48:19;;;;;;;4.50;3.90;;;;;;;24.95;42.55;96508.88;111803;1246;55896;-87
2023/06/26 14:50:49;;;;;;;5.50;3.80;;;;;;;24.95;43.17;96504.92;111864;1246;22536;-87
2023/06/26 14:53:22;;;;;;;6.00;4.10;;;;;;;24.86;42.74;96500.96;111850;1246;22516;-87
2023/06/26 14:55:51;;;;;;;5.60;3.60;;;;;;;24.76;42.75;96499.80;111860;1246;22510;-86
2023/06/26 14:58:19;;;;;;;;;;;;;;;24.67;42.70;96496.98;111791;1246;44885;-87
2023/06/26 15:00:52;;;;;;;6.80;4.00;;;;;;;24.63;42.72;96497.17;111867;1246;22513;-87
2023/06/26 15:03:24;;;;;;;4.60;3.80;;;;;;;24.68;42.96;96492.36;111860;1246;22520;-87
2023/06/26 15:05:53;;;;;;;5.80;3.90;;;;;;;24.75;42.92;96489.63;111687;1246;22558;-87
2023/06/26 15:08:22;;;;;;;6.80;4.00;;;;;;;24.84;42.73;96484.20;111757;1246;94696;-86
2023/06/26 15:10:51;;;;;;;4.80;3.90;;;;;;;24.93;42.73;96485.06;111823;1246;22502;-86
2023/06/26 15:13:28;;;;;;;5.50;4.00;;;;;;;25.01;42.70;96484.45;111837;1246;22545;-87
2023/06/26 15:16:04;;;;;;;5.50;4.20;;;;;;;24.94;42.33;96478.41;111836;1238;22518;-87
2023/06/26 15:18:35;;;;;;;4.90;4.20;;;;;;;24.83;42.43;96480.95;111730;1246;123220;-87
2023/06/26 15:21:05;;;;;;;5.50;3.90;;;;;;;24.84;43.04;96482.27;111840;1246;22471;-87
2023/06/26 15:23:34;;;;;;;7.20;4.40;;;;;;;24.82;42.75;96480.71;111834;1246;22481;-87
2023/06/26 15:26:07;;;;;;;5.70;4.00;;;;;;;24.77;42.99;96482.38;111855;1246;22479;-86
2023/06/26 15:28:37;;;;;;;5.00;3.80;;;;;;;24.82;43.74;96476.77;111774;1246;76000;-87
2023/06/26 15:31:09;;;;;;;8.20;4.70;;;;;;;24.91;43.93;96476.45;111874;1246;22592;-87
2023/06/26 15:33:38;;;;;;;4.90;4.10;;;;;;;25.01;43.80;96477.31;111871;1244;22990;-87
2023/06/26 15:36:07;;;;;;;6.10;4.00;;;;;;;25.08;43.15;96477.64;111849;1246;24292;-87
2023/06/26 15:38:44;;;;;;;4.30;3.90;;;;;;;25.13;42.67;96474.17;111814;1244;50033;-87
2023/06/26 15:41:13;;;;;;;7.20;4.10;;;;;;;25.14;42.64;96468.98;111811;1246;22521;-87
2023/06/26 15:43:43;;;;;;;5.60;4.70;;;;;;;25.18;42.77;96464.77;111867;1246;22513;-87
2023/06/26 15:46:15;;;;;;;6.50;4.30;;;;;;;25.25;42.77;96460.08;111860;1242;22513;-87
2023/06/26 15:48:43;;;;;;;5.50;4.50;;;;;;;25.27;42.61;96455.45;110467;1246;1766421;-87
2023/06/26 15:51:17;;;;;;;7.20;4.90;;;;;;;25.34;42.91;96455.58;111855;1246;22493;-86
2023/06/26 15:53:46;;;;;;;5.90;4.50;;;;;;;25.36;42.54;96453.20;111861;1246;22530;-86
2023/06/26 15:56:14;;;;;;;;;;;;;;;25.40;42.77;96447.86;111927;1244;22553;-86
2023/06/26 15:58:48;;;;;;;6.40;4.50;;;;;;;25.48;42.66;96451.70;111814;1246;70024;-87
2023/06/26 16:01:22;;;;;;;7.70;5.30;;;;;;;25.50;42.43;96450.10;111861;1246;22510;-87
2023/06/26 16:03:53;;;;;;;6.00;4.50;;;;;;;25.50;42.48;96445.83;111872;1244;22525;-86
2023/06/26 16:06:24;;;;;;;7.20;5.30;;;;;;;25.49;42.59;96445.13;111839;1246;22503;-87
2023/06/26 16:08:53;;;;;;;6.40;4.80;;;;;;;25.44;42.74;96448.02;111818;1246;42772;-86
2023/06/26 16:11:24;;;;;;;6.40;4.90;;;;;;;25.43;42.60;96443.52;111882;1246;24194;-87
2023/06/26 16:13:58;;;;;;;5.90;4.90;;;;;;;25.48;42.64;96438.67;111853;1244;22541;-87
2023/06/26 16:16:28;;;;;;;6.30;5.00;;;;;;;25.52;42.45;96435.05;111871;1246;24202;-87
2023/06/26 16:18:57;;;;;;;7.70;5.30;;;;;;;25.54;43.02;96432.27;111776;1244;77299;-87
2023/06/26 16:21:29;;;;;;;7.70;5.70;;;;;;;25.59;43.20;96434.85;111862;1242;22531;-87
2023/06/26 16:24:00;;;;;;;6.10;4.50;;;;;;;25.57;42.43;96431.73;111842;1246;25368;-87
2023/06/26 16:26:35;;;;;;;6.10;4.80;;;;;;;25.55;42.05;96429.48;111856;1238;22504;-87
2023/06/26 16:29:11;;;;;;;6.60;4.40;;;;;;;25.54;41.70;96430.72;111800;1246;66216;-87
2023/06/26 16:31:54;;;;;;;5.80;4.80;;;;;;;25.50;41.48;96421.63;111869;1246;22595;-87
2023/06/26 16:34:26;;;;;;;5.90;4.60;;;;;;;25.44;41.49;96422.90;111702;1246;22509;-87
2023/06/26 16:36:56;;;;;;;6.20;4.90;;;;;;;25.44;41.49;96422.98;111866;1244;22519;-88
2023/06/26 16:39:32;;;;;;;7.10;4.70;;;;;;;25.42;41.43;96417.08;111787;1246;110075;-88
2023/06/26 16:42:02;;;;;;;5.70;4.70;;;;;;;25.47;41.37;96413.08;111887;1246;25405;-88
2023/06/26 16:44:33;;;;;;;6.00;4.60;;;;;;;25.68;41.73;96409.93;111855;1246;22544;-87
2023/06/26 16:47:08;;;;;;;5.00;4.40;;;;;;;26.13;41.86;96408.79;111881;1246;22531;-88
2023/06/26 16:49:40;;;;;;;5.70;4.60;;;;;;;26.55;41.58;96402.15;111790;1246;77413;-87
2023/06/26 16:52:15;;;;;;;6.10;4.60;;;;;;;26.97;41.55;96399.37;111844;1246;22499;-87
2023/06/26 16:54:46;;;;;;;6.50;5.10;;;;;;;27.27;40.72;96397.48;111853;1242;26400;-88
2023/06/26 16:57:17;;;;;;;5.70;4.90;;;;;;;27.51;40.71;96398.67;111856;1243;22546;-88
2023/06/26 16:59:48;;;;;;;8.90;6.80;;;;;;;27.75;41.04;96397.92;111790;1246;87594;-88
2023/06/26 17:02:18;;;;;;;9.30;5.30;;;;;;;27.92;41.04;96400.58;111831;1246;22535;-88
2023/06/26 17:04:49;;;;;;;5.20;4.40;;;;;;;28.05;40.59;96398.41;111848;1246;22504;-87
2023/06/26 17:07:21;;;;;;;6.10;4.90;;;;;;;28.10;40.10;96395.17;111850;1238;22567;-88
2023/06/26 17:09:53;;;;;;;8.40;4.40;;;;;;;28.09;40.01;96398.14;111801;1246;60910;-88
2023/06/26 17:12:28;;;;;;;5.00;4.10;;;;;;;28.05;39.69;96400.04;111884;1246;22690;-88
2023/06/26 17:15:03;;;;;;;5.00;4.40;;;;;;;27.91;39.69;96399.96;111866;1246;22512;-88
2023/06/26 17:17:34;;;;;;;6.40;4.30;;;;;;;27.83;39.33;96404.18;111866;1246;22572;-88
2023/06/26 17:20:09;;;;;;;8.00;4.60;;;;;;;27.76;39.40;96400.64;111768;1242;101505;-88
2023/06/26 17:22:44;;;;;;;5.60;4.30;;;;;;;27.75;39.41;96400.80;111850;1246;24212;-88
2023/06/26 17:25:18;;;;;;;4.90;3.90;;;;;;;27.70;39.36;96399.17;111857;1239;24359;-87
2023/06/26 17:27:50;;;;;;;5.30;4.30;;;;;;;27.57;39.34;96401.13;111864;1246;22488;-88
2023/06/26 17:30:21;;;;;;;5.20;4.50;;;;;;;27.44;39.23;96400.00;111821;1244;65520;-88
2023/06/26 17:32:56;;;;;;;5.40;4.30;;;;;;;27.33;39.25;96403.69;111853;1246;23983;-88
2023/06/26 17:35:25;;;;;;;5.40;4.20;;;;;;;27.19;39.24;96402.24;111859;1246;22616;-87
2023/06/26 17:37:57;;;;;;;6.30;4.10;;;;;;;27.08;39.33;96407.23;111869;1246;22510;-87
2023/06/26 17:40:29;;;;;;;6.10;4.80;;;;;;;26.98;39.40;96407.52;110267;1230;2080653;-87
2023/06/26 17:42:58;;;;;;;5.10;4.10;;;;;;;26.86;39.51;96405.73;111862;1239;22550;-88
2023/06/26 17:45:29;;;;;;;;;;;;;;;26.57;39.40;96410.54;111892;1244;22500;-87
2023/06/26 17:47:58;;;;;;;7.30;4.00;;;;;;;26.16;39.51;96409.11;111884;1246;24250;-88
2023/06/26 17:50:29;;;;;;;8.40;4.90;;;;;;;25.78;39.85;96411.63;111845;1246;51698;-88
2023/06/26 17:52:59;;;;;;;6.90;4.80;;;;;;;25.47;40.30;96411.29;111879;1246;22522;-87
2023/06/26 17:55:35;;;;;;;6.10;4.70;;;;;;;25.19;40.87;96407.48;111860;1246;22607;-87
2023/06/26 17:58:04;;;;;;;6.20;5.00;;;;;;;24.85;41.27;96409.30;111852;1244;22511;-87
2023/06/26 18:00:34;;;;;;;7.00;4.90;;;;;;;24.58;41.58;96412.48;111864;1244;22542;-87
2023/06/26 18:03:04;;;;;;;5.00;4.40;;;;;;;24.30;41.96;96414.99;111850;1246;22533;-87
2023/06/26 18:05:33;;;;;;;5.10;4.20;;;;;;;24.07;42.46;96416.35;111847;1240;22509;-87
2023/06/26 18:08:02;;;;;;;6.80;4.90;;;;;;;23.84;42.98;96412.77;111852;1241;22578;-87
2023/06/26 18:10:35;;;;;;;7.70;5.10;;;;;;;23.65;43.39;96415.47;111831;1246;59593;-87
2023/06/26 18:13:04;;;;;;;6.00;4.80;;;;;;;23.45;43.85;96419.58;111891;1246;22509;-87
2023/06/26 18:15:37;;;;;;;6.60;4.80;;;;;;;23.26;44.23;96422.10;111648;1246;22526;-87
2023/06/26 18:18:09;;;;;;;8.20;5.20;;;;;;;23.06;44.62;96416.71;111859;1246;22533;-87
2023/06/26 18:20:42;;;;;;;5.20;4.40;;;;;;;22.92;44.94;96416.41;111937;1241;22504;-87
2023/06/26 18:23:13;;;;;;;5.00;4.20;;;;;;;22.80;45.44;96416.98;111946;1245;22549;-87
2023/06/26 18:25:44;;;;;;;6.40;4.80;;;;;;;22.64;45.81;96417.33;111938;1245;22536;-87
2023/06/26 18:28:23;;;;;;;6.00;5.30;;;;;;;22.47;46.22;96414.58;111853;1243;104995;-87
2023/06/26 18:30:55;;;;;;;8.30;5.00;;;;;;;22.30;46.47;96418.20;111924;1245;22549;-87